sensor_id;sensor_type;location;lat;lon;timestamp;P1;durP1;ratioP1;P2;durP2;ratioP2
63664;SDS011;49820;33.966;73.390;2023-08-12T04:56:09;19.88;;;8.02;;
63664;SDS011;49820;33.966;73.390;2023-08-12T04:58:39;19.50;;;7.85;;
63664;SDS011;49820;33.966;73.390;2023-08-12T05:01:10;17.02;;;7.10;;
63664;SDS011;49820;33.966;73.390;2023-08-12T05:03:39;18.50;;;7.85;;
63664;SDS011;49820;33.966;73.390;2023-08-12T05:06:09;16.88;;;7.47;;
63664;SDS011;49820;33.966;73.390;2023-08-12T05:08:38;18.20;;;7.80;;
63664;SDS011;49820;33.966;73.390;2023-08-12T05:11:10;21.83;;;8.73;;
63664;SDS011;49820;33.966;73.390;2023-08-12T05:13:39;16.42;;;7.53;;
63664;SDS011;49820;33.966;73.390;2023-08-12T05:16:09;20.77;;;8.23;;
63664;SDS011;49820;33.966;73.390;2023-08-12T05:18:37;17.95;;;7.53;;
63664;SDS011;49820;33.966;73.390;2023-08-12T05:21:07;18.33;;;7.65;;
63664;SDS011;49820;33.966;73.390;2023-08-12T05:23:36;18.92;;;8.45;;
63664;SDS011;49820;33.966;73.390;2023-08-12T05:26:05;21.25;;;8.43;;
63664;SDS011;49820;33.966;73.390;2023-08-12T05:28:34;18.07;;;8.57;;
63664;SDS011;49820;33.966;73.390;2023-08-12T05:31:04;20.30;;;7.57;;
63664;SDS011;49820;33.966;73.390;2023-08-12T05:33:33;22.70;;;8.80;;
63664;SDS011;49820;33.966;73.390;2023-08-12T05:36:02;19.60;;;8.15;;
63664;SDS011;49820;33.966;73.390;2023-08-12T05:38:32;23.70;;;8.90;;
63664;SDS011;49820;33.966;73.390;2023-08-12T05:41:01;18.80;;;8.75;;
63664;SDS011;49820;33.966;73.390;2023-08-12T05:43:33;19.52;;;8.82;;
63664;SDS011;49820;33.966;73.390;2023-08-12T05:46:01;21.35;;;9.35;;
63664;SDS011;49820;33.966;73.390;2023-08-12T05:48:30;21.88;;;8.73;;
63664;SDS011;49820;33.966;73.390;2023-08-12T05:50:59;23.10;;;9.52;;
63664;SDS011;49820;33.966;73.390;2023-08-12T05:53:28;17.45;;;8.52;;
63664;SDS011;49820;33.966;73.390;2023-08-12T05:55:57;18.13;;;7.72;;
63664;SDS011;49820;33.966;73.390;2023-08-12T05:58:27;19.90;;;8.50;;
63664;SDS011;49820;33.966;73.390;2023-08-12T06:00:57;17.83;;;7.85;;
63664;SDS011;49820;33.966;73.390;2023-08-12T06:03:27;20.83;;;8.10;;
63664;SDS011;49820;33.966;73.390;2023-08-12T06:05:56;22.23;;;8.43;;
63664;SDS011;49820;33.966;73.390;2023-08-12T06:08:25;17.20;;;8.15;;
63664;SDS011;49820;33.966;73.390;2023-08-12T06:10:54;23.42;;;8.35;;
63664;SDS011;49820;33.966;73.390;2023-08-12T06:13:24;19.45;;;8.63;;
63664;SDS011;49820;33.966;73.390;2023-08-12T06:15:53;20.73;;;8.43;;
63664;SDS011;49820;33.966;73.390;2023-08-12T06:18:22;22.77;;;9.23;;
63664;SDS011;49820;33.966;73.390;2023-08-12T06:20:50;21.15;;;8.38;;
63664;SDS011;49820;33.966;73.390;2023-08-12T06:23:19;20.60;;;9.10;;
63664;SDS011;49820;33.966;73.390;2023-08-12T06:25:54;17.83;;;8.50;;
63664;SDS011;49820;33.966;73.390;2023-08-12T06:28:23;18.27;;;8.45;;
63664;SDS011;49820;33.966;73.390;2023-08-12T06:30:54;21.65;;;9.85;;
63664;SDS011;49820;33.966;73.390;2023-08-12T06:33:23;20.67;;;8.82;;
63664;SDS011;49820;33.966;73.390;2023-08-12T06:35:51;21.05;;;8.20;;
63664;SDS011;49820;33.966;73.390;2023-08-12T06:38:20;20.50;;;8.93;;
63664;SDS011;49820;33.966;73.390;2023-08-12T06:40:50;19.27;;;7.93;;
63664;SDS011;49820;33.966;73.390;2023-08-12T06:43:20;18.60;;;9.40;;
63664;SDS011;49820;33.966;73.390;2023-08-12T06:45:49;35.95;;;10.75;;
63664;SDS011;49820;33.966;73.390;2023-08-12T06:48:18;21.33;;;9.20;;
63664;SDS011;49820;33.966;73.390;2023-08-12T06:50:52;21.70;;;10.02;;
63664;SDS011;49820;33.966;73.390;2023-08-12T06:53:22;18.10;;;9.30;;
63664;SDS011;49820;33.966;73.390;2023-08-12T06:55:53;21.00;;;9.38;;
63664;SDS011;49820;33.966;73.390;2023-08-12T06:58:23;21.98;;;9.38;;
63664;SDS011;49820;33.966;73.390;2023-08-12T07:00:52;20.13;;;9.18;;
63664;SDS011;49820;33.966;73.390;2023-08-12T07:03:22;21.13;;;9.35;;
63664;SDS011;49820;33.966;73.390;2023-08-12T07:05:52;19.33;;;9.88;;
63664;SDS011;49820;33.966;73.390;2023-08-12T07:08:22;16.47;;;8.73;;
63664;SDS011;49820;33.966;73.390;2023-08-12T07:10:51;18.33;;;9.32;;
63664;SDS011;49820;33.966;73.390;2023-08-12T07:13:21;23.97;;;9.27;;
63664;SDS011;49820;33.966;73.390;2023-08-12T07:15:50;22.63;;;10.02;;
63664;SDS011;49820;33.966;73.390;2023-08-12T07:18:19;21.98;;;10.32;;
63664;SDS011;49820;33.966;73.390;2023-08-12T07:20:48;18.97;;;9.53;;
63664;SDS011;49820;33.966;73.390;2023-08-12T07:23:18;21.17;;;9.90;;
63664;SDS011;49820;33.966;73.390;2023-08-12T07:25:47;22.92;;;9.88;;
63664;SDS011;49820;33.966;73.390;2023-08-12T07:28:16;24.73;;;9.73;;
63664;SDS011;49820;33.966;73.390;2023-08-12T07:30:45;22.95;;;10.68;;
63664;SDS011;49820;33.966;73.390;2023-08-12T07:33:14;25.57;;;10.73;;
63664;SDS011;49820;33.966;73.390;2023-08-12T07:35:43;19.67;;;10.13;;
63664;SDS011;49820;33.966;73.390;2023-08-12T07:38:13;21.67;;;9.73;;
63664;SDS011;49820;33.966;73.390;2023-08-12T07:40:41;22.50;;;9.80;;
63664;SDS011;49820;33.966;73.390;2023-08-12T07:43:12;21.10;;;10.35;;
63664;SDS011;49820;33.966;73.390;2023-08-12T07:45:41;28.88;;;10.45;;
63664;SDS011;49820;33.966;73.390;2023-08-12T07:48:15;20.67;;;10.00;;
63664;SDS011;49820;33.966;73.390;2023-08-12T07:50:44;25.30;;;10.43;;
63664;SDS011;49820;33.966;73.390;2023-08-12T07:53:14;21.85;;;10.73;;
63664;SDS011;49820;33.966;73.390;2023-08-12T07:55:44;19.05;;;9.77;;
63664;SDS011;49820;33.966;73.390;2023-08-12T07:58:13;17.42;;;10.18;;
63664;SDS011;49820;33.966;73.390;2023-08-12T08:00:42;23.08;;;10.00;;
63664;SDS011;49820;33.966;73.390;2023-08-12T08:03:11;18.27;;;9.30;;
63664;SDS011;49820;33.966;73.390;2023-08-12T08:05:41;22.13;;;9.77;;
63664;SDS011;49820;33.966;73.390;2023-08-12T08:08:10;22.27;;;9.60;;
63664;SDS011;49820;33.966;73.390;2023-08-12T08:10:41;23.27;;;10.52;;
63664;SDS011;49820;33.966;73.390;2023-08-12T08:13:10;21.02;;;10.07;;
63664;SDS011;49820;33.966;73.390;2023-08-12T08:15:39;19.48;;;9.98;;
63664;SDS011;49820;33.966;73.390;2023-08-12T08:18:07;22.05;;;10.32;;
63664;SDS011;49820;33.966;73.390;2023-08-12T08:20:37;25.95;;;11.23;;
63664;SDS011;49820;33.966;73.390;2023-08-12T08:23:05;23.08;;;10.52;;
63664;SDS011;49820;33.966;73.390;2023-08-12T08:25:34;18.50;;;9.48;;
63664;SDS011;49820;33.966;73.390;2023-08-12T08:28:03;23.75;;;11.18;;
63664;SDS011;49820;33.966;73.390;2023-08-12T08:30:33;18.27;;;10.10;;
63664;SDS011;49820;33.966;73.390;2023-08-12T08:33:01;21.70;;;10.63;;
63664;SDS011;49820;33.966;73.390;2023-08-12T08:35:31;20.20;;;10.48;;
63664;SDS011;49820;33.966;73.390;2023-08-12T08:38:00;21.15;;;10.82;;
63664;SDS011;49820;33.966;73.390;2023-08-12T08:40:29;24.50;;;9.95;;
63664;SDS011;49820;33.966;73.390;2023-08-12T08:43:01;23.98;;;11.30;;
63664;SDS011;49820;33.966;73.390;2023-08-12T08:45:34;25.90;;;11.13;;
63664;SDS011;49820;33.966;73.390;2023-08-12T08:48:04;24.45;;;11.00;;
63664;SDS011;49820;33.966;73.390;2023-08-12T08:50:34;42.42;;;12.93;;
63664;SDS011;49820;33.966;73.390;2023-08-12T09:16:05;32.13;;;16.83;;
63664;SDS011;49820;33.966;73.390;2023-08-12T09:18:36;32.42;;;20.50;;
63664;SDS011;49820;33.966;73.390;2023-08-12T09:21:06;36.08;;;21.23;;
63664;SDS011;49820;33.966;73.390;2023-08-12T09:23:40;35.67;;;17.20;;
63664;SDS011;49820;33.966;73.390;2023-08-12T09:26:17;33.10;;;15.82;;
63664;SDS011;49820;33.966;73.390;2023-08-12T09:28:48;34.88;;;14.07;;
63664;SDS011;49820;33.966;73.390;2023-08-12T09:31:24;28.65;;;13.18;;
63664;SDS011;49820;33.966;73.390;2023-08-12T09:33:58;25.90;;;14.37;;
63664;SDS011;49820;33.966;73.390;2023-08-12T09:36:33;32.63;;;15.30;;
63664;SDS011;49820;33.966;73.390;2023-08-12T09:39:07;28.85;;;14.80;;
63664;SDS011;49820;33.966;73.390;2023-08-12T09:41:39;31.77;;;14.48;;
63664;SDS011;49820;33.966;73.390;2023-08-12T09:44:08;32.70;;;16.40;;
63664;SDS011;49820;33.966;73.390;2023-08-12T09:46:37;25.38;;;13.10;;
63664;SDS011;49820;33.966;73.390;2023-08-12T09:49:06;26.83;;;13.70;;
63664;SDS011;49820;33.966;73.390;2023-08-12T09:51:36;29.73;;;13.55;;
63664;SDS011;49820;33.966;73.390;2023-08-12T09:54:11;31.13;;;15.18;;
63664;SDS011;49820;33.966;73.390;2023-08-12T09:56:43;29.23;;;14.70;;
63664;SDS011;49820;33.966;73.390;2023-08-12T09:59:21;32.05;;;15.18;;
63664;SDS011;49820;33.966;73.390;2023-08-12T10:01:53;28.67;;;14.73;;
63664;SDS011;49820;33.966;73.390;2023-08-12T10:04:27;32.90;;;15.20;;
63664;SDS011;49820;33.966;73.390;2023-08-12T10:07:04;24.77;;;12.48;;
63664;SDS011;49820;33.966;73.390;2023-08-12T10:09:35;28.15;;;16.00;;
63664;SDS011;49820;33.966;73.390;2023-08-12T10:12:06;33.73;;;14.73;;
63664;SDS011;49820;33.966;73.390;2023-08-12T10:14:37;28.38;;;13.50;;
63664;SDS011;49820;33.966;73.390;2023-08-12T10:17:09;28.20;;;14.13;;
63664;SDS011;49820;33.966;73.390;2023-08-12T10:19:43;28.08;;;14.90;;
63664;SDS011;49820;33.966;73.390;2023-08-12T10:22:13;26.88;;;13.43;;
63664;SDS011;49820;33.966;73.390;2023-08-12T10:24:49;32.22;;;13.80;;
63664;SDS011;49820;33.966;73.390;2023-08-12T10:27:19;32.33;;;13.10;;
63664;SDS011;49820;33.966;73.390;2023-08-12T10:29:49;29.40;;;13.10;;
63664;SDS011;49820;33.966;73.390;2023-08-12T10:32:19;29.20;;;13.00;;
63664;SDS011;49820;33.966;73.390;2023-08-12T10:34:56;31.20;;;14.15;;
63664;SDS011;49820;33.966;73.390;2023-08-12T10:37:26;31.10;;;13.73;;
63664;SDS011;49820;33.966;73.390;2023-08-12T10:40:04;26.50;;;13.10;;
63664;SDS011;49820;33.966;73.390;2023-08-12T10:45:17;29.77;;;14.57;;
63664;SDS011;49820;33.966;73.390;2023-08-12T10:50:30;28.75;;;13.20;;
63664;SDS011;49820;33.966;73.390;2023-08-12T10:53:20;30.15;;;13.00;;
63664;SDS011;49820;33.966;73.390;2023-08-12T10:56:02;28.38;;;12.98;;
63664;SDS011;49820;33.966;73.390;2023-08-12T10:58:46;26.75;;;12.98;;
63664;SDS011;49820;33.966;73.390;2023-08-12T11:01:18;27.52;;;12.32;;
63664;SDS011;49820;33.966;73.390;2023-08-12T11:03:48;28.35;;;13.20;;
63664;SDS011;49820;33.966;73.390;2023-08-12T11:06:19;23.13;;;12.70;;
63664;SDS011;49820;33.966;73.390;2023-08-12T11:08:51;27.02;;;13.45;;
63664;SDS011;49820;33.966;73.390;2023-08-12T11:11:22;32.08;;;13.32;;
63664;SDS011;49820;33.966;73.390;2023-08-12T11:13:58;32.50;;;13.30;;
63664;SDS011;49820;33.966;73.390;2023-08-12T11:16:37;31.67;;;13.47;;
63664;SDS011;49820;33.966;73.390;2023-08-12T11:19:06;28.20;;;13.63;;
63664;SDS011;49820;33.966;73.390;2023-08-12T11:21:36;31.83;;;13.90;;
63664;SDS011;49820;33.966;73.390;2023-08-12T11:24:08;24.90;;;13.65;;
63664;SDS011;49820;33.966;73.390;2023-08-12T11:26:37;27.58;;;14.95;;
63664;SDS011;49820;33.966;73.390;2023-08-12T11:29:09;33.10;;;16.58;;
63664;SDS011;49820;33.966;73.390;2023-08-12T11:31:48;33.42;;;15.02;;
63664;SDS011;49820;33.966;73.390;2023-08-12T11:34:22;29.60;;;14.30;;
63664;SDS011;49820;33.966;73.390;2023-08-12T11:36:51;29.30;;;15.20;;
63664;SDS011;49820;33.966;73.390;2023-08-12T11:39:20;31.98;;;14.88;;
63664;SDS011;49820;33.966;73.390;2023-08-12T11:41:49;29.50;;;14.43;;
63664;SDS011;49820;33.966;73.390;2023-08-12T11:44:22;30.15;;;15.98;;
63664;SDS011;49820;33.966;73.390;2023-08-12T11:46:51;34.85;;;15.40;;
63664;SDS011;49820;33.966;73.390;2023-08-12T11:49:21;31.07;;;15.20;;
63664;SDS011;49820;33.966;73.390;2023-08-12T11:51:50;28.60;;;15.45;;
63664;SDS011;49820;33.966;73.390;2023-08-12T11:54:19;29.10;;;15.93;;
63664;SDS011;49820;33.966;73.390;2023-08-12T11:56:48;29.27;;;14.87;;
63664;SDS011;49820;33.966;73.390;2023-08-12T11:59:18;30.63;;;15.35;;
63664;SDS011;49820;33.966;73.390;2023-08-12T12:01:49;31.63;;;14.38;;
63664;SDS011;49820;33.966;73.390;2023-08-12T12:04:20;32.65;;;14.32;;
63664;SDS011;49820;33.966;73.390;2023-08-12T12:19:18;34.03;;;15.30;;
63664;SDS011;49820;33.966;73.390;2023-08-12T12:21:52;29.10;;;13.80;;
63664;SDS011;49820;33.966;73.390;2023-08-12T12:24:22;29.33;;;14.70;;
63664;SDS011;49820;33.966;73.390;2023-08-12T12:26:57;25.95;;;14.57;;
63664;SDS011;49820;33.966;73.390;2023-08-12T12:29:26;30.13;;;14.52;;
63664;SDS011;49820;33.966;73.390;2023-08-12T12:31:56;27.60;;;12.98;;
63664;SDS011;49820;33.966;73.390;2023-08-12T12:34:26;33.70;;;13.52;;
63664;SDS011;49820;33.966;73.390;2023-08-12T12:37:05;30.08;;;13.00;;
63664;SDS011;49820;33.966;73.390;2023-08-12T12:39:37;27.98;;;14.30;;
63664;SDS011;49820;33.966;73.390;2023-08-12T12:42:06;30.33;;;13.20;;
63664;SDS011;49820;33.966;73.390;2023-08-12T12:44:35;29.23;;;13.52;;
63664;SDS011;49820;33.966;73.390;2023-08-12T12:47:05;28.60;;;13.10;;
63664;SDS011;49820;33.966;73.390;2023-08-12T12:49:38;25.50;;;12.73;;
63664;SDS011;49820;33.966;73.390;2023-08-12T12:52:09;22.92;;;12.68;;
63664;SDS011;49820;33.966;73.390;2023-08-12T12:54:41;25.05;;;12.88;;
63664;SDS011;49820;33.966;73.390;2023-08-12T12:57:12;22.73;;;12.23;;
63664;SDS011;49820;33.966;73.390;2023-08-12T12:59:41;29.10;;;12.77;;
63664;SDS011;49820;33.966;73.390;2023-08-12T13:02:10;26.33;;;13.63;;
63664;SDS011;49820;33.966;73.390;2023-08-12T13:04:39;28.02;;;14.88;;
63664;SDS011;49820;33.966;73.390;2023-08-12T13:07:10;30.52;;;13.73;;
63664;SDS011;49820;33.966;73.390;2023-08-12T13:09:39;22.23;;;12.50;;
63664;SDS011;49820;33.966;73.390;2023-08-12T13:12:08;26.38;;;13.00;;
63664;SDS011;49820;33.966;73.390;2023-08-12T13:14:38;29.50;;;13.32;;
63664;SDS011;49820;33.966;73.390;2023-08-12T13:17:07;25.02;;;12.13;;
63664;SDS011;49820;33.966;73.390;2023-08-12T13:19:36;26.30;;;13.73;;
63664;SDS011;49820;33.966;73.390;2023-08-12T13:22:05;24.98;;;12.63;;
63664;SDS011;49820;33.966;73.390;2023-08-12T13:24:35;26.33;;;12.15;;
63664;SDS011;49820;33.966;73.390;2023-08-12T13:27:05;26.55;;;13.02;;
63664;SDS011;49820;33.966;73.390;2023-08-12T13:29:35;27.00;;;13.25;;
63664;SDS011;49820;33.966;73.390;2023-08-12T13:32:04;24.95;;;14.15;;
63664;SDS011;49820;33.966;73.390;2023-08-12T13:34:36;31.13;;;15.23;;
63664;SDS011;49820;33.966;73.390;2023-08-12T13:37:10;27.73;;;16.83;;
63664;SDS011;49820;33.966;73.390;2023-08-12T14:15:47;30.10;;;17.40;;
63664;SDS011;49820;33.966;73.390;2023-08-12T14:18:17;31.45;;;17.13;;
63664;SDS011;49820;33.966;73.390;2023-08-12T14:20:45;29.15;;;14.85;;
63664;SDS011;49820;33.966;73.390;2023-08-12T14:23:15;31.88;;;16.40;;
63664;SDS011;49820;33.966;73.390;2023-08-12T14:25:45;28.25;;;16.58;;
63664;SDS011;49820;33.966;73.390;2023-08-12T14:28:16;27.98;;;15.80;;
63664;SDS011;49820;33.966;73.390;2023-08-12T14:30:45;28.20;;;15.25;;
63664;SDS011;49820;33.966;73.390;2023-08-12T14:33:14;25.02;;;15.65;;
63664;SDS011;49820;33.966;73.390;2023-08-12T14:35:43;30.27;;;14.80;;
63664;SDS011;49820;33.966;73.390;2023-08-12T14:38:11;27.65;;;14.95;;
63664;SDS011;49820;33.966;73.390;2023-08-12T14:40:40;27.77;;;15.40;;
63664;SDS011;49820;33.966;73.390;2023-08-12T14:43:09;29.42;;;15.32;;
63664;SDS011;49820;33.966;73.390;2023-08-12T14:45:39;27.23;;;15.18;;
63664;SDS011;49820;33.966;73.390;2023-08-12T14:48:09;28.05;;;15.32;;
63664;SDS011;49820;33.966;73.390;2023-08-12T14:50:38;25.17;;;14.20;;
63664;SDS011;49820;33.966;73.390;2023-08-12T14:53:09;30.52;;;15.20;;
63664;SDS011;49820;33.966;73.390;2023-08-12T14:55:37;26.23;;;14.77;;
63664;SDS011;49820;33.966;73.390;2023-08-12T14:58:06;29.52;;;15.88;;
63664;SDS011;49820;33.966;73.390;2023-08-12T15:00:36;33.97;;;15.98;;
63664;SDS011;49820;33.966;73.390;2023-08-12T15:03:07;33.13;;;16.90;;
63664;SDS011;49820;33.966;73.390;2023-08-12T15:05:41;32.88;;;15.48;;
63664;SDS011;49820;33.966;73.390;2023-08-12T15:08:11;29.45;;;14.63;;
63664;SDS011;49820;33.966;73.390;2023-08-12T15:10:40;30.05;;;15.27;;
